Minnewana, Minnesota
Current Conditions -  °F | °C
As of 12:07 PM on Wednesday 28 Jan 2015 (Local Time) from KHZX Reporting Station
Overcast Overcast  
Wind Chill: 19°   Ceiling: 600
Heat Index: 28°   Visibility: 7mi
Dew Point: 27°   Wind: 10mph
Humidity: 93%   Direction: 160°SSE
Pressure: 29.87"   Gusts: NA
Location:  46.7232°N, 93.3159°W
Report Text: KHZX 281807Z AUTO 16009KT 7SM OVC006 M02/M03 A2987 RMK AO2
Loading
Personal Weather Stations






























Interactive Weather Map New forecast layout! Learn more

10-Day Weather Forecast

Advertisements
Track Severe Weather on mobile